Aérodrome :
LOGIN :

S'inscrire | Disclaimer

   EN    FR    IT 

 










Légende :    VFR   VFR Marginal   IFR   IFR Intensif   IFR Très Intensif
Visi : 
Plafond : 
>= 8 km
>= 3000ft
5 à 8 km
1000 à 3000 ft
1500m à 5 km
500 à 1000 ft
800 à 1500m
200 à 500 ft
< 800m
< 200 ft
Symboles :   Orages  Brouillard  Fortes neiges  Fortes précipitations  Vent > 20 kt
SIGMETs :   Divers  Orages  Givrage  Turbulence  Onde Orograph.  Cendres Volcan.







- Altitude de l'aérodrome : 529 ft
- Code IATA : CHR
- Voir les cartes d'approche


LFLX - Chateauroux

DERNIER METAR :
  • 230800Z AUTO 23009KT 9999 OVC013 20/16 Q1021 TEMPO BKN030

METARs EXPIRÉS :
  • 230730Z AUTO 25009KT 9999 OVC013 20/16 Q1021 TEMPO BKN030
  • 230700Z AUTO 24009KT 9999 OVC012 19/16 Q1021 TEMPO BKN030
  • 230630Z AUTO 24010KT 9999 OVC011 19/16 Q1020 TEMPO BKN030
  • 230600Z AUTO 25010KT 9999 BKN010 OVC014 19/16 Q1020 BECMG NSC
  • 230530Z AUTO 24010KT 9999 BKN010 OVC014 19/16 Q1020 BECMG NSC

TAF AMD TAF LFLX
Valide du 23 à 08h jusqu'au 24 à 12h UTC


230815Z 2308/2412 25008KT CAVOK
TEMPO 2308/2310 BKN014
TEMPO 2310/2312 BKN030
Pas de NOTAMs connus pour ce terrain.



MET'MAP, la Météo Aéronautique d'un coup d'oeil ! - Copyright ORBIFLY Décembre 2007 - Disclaimer

ORBIFLY MET'MAP TEAM :

Programmation & Développement : Alexandra Zaïnal
Conception & Développement : Baudouin d'Aumeries
Co-Programmation & Développement : Marc-Olivier Méhu
Soutien technique & logistique : Manuel Goepfert

Contact : metmap@orbifly.com




SOURCES & CREDITS :

   NOAA